Aransas Pass, Texas
Current Conditions -  °F | °C
As of 1:35 AM on Thursday 23 Oct 2014 (Local Time) from KTFP Reporting Station
Clear Clear  
Wind Chill: 72°   Ceiling: Unl
Heat Index: 72°   Visibility: 10mi
Dew Point: 62°   Wind: 5mph
Humidity: 71%   Direction: 80°E
Pressure: 30.04"   Gusts: NA
Location:  27.9°N, 97.15°W
Report Text: KTFP 230635Z AUTO 08004KT 10SM CLR 22/17 A3004 RMK AO2 T02230169
Loading
Personal Weather Stations






























Interactive Weather Map
Tropical Storm Tracking
New forecast layout! Learn more

10-Day Weather Forecast

Advertisements
Track Severe Weather on mobile